createdAt,value
2022-10-05T00:00:34.403Z,0.00
2022-10-05T00:01:34.442Z,0.00
2022-10-05T00:02:34.350Z,0.00
2022-10-05T00:03:34.399Z,0.00
2022-10-05T00:04:34.352Z,0.00
2022-10-05T00:05:34.384Z,0.00
2022-10-05T00:06:34.323Z,0.00
2022-10-05T00:07:34.334Z,0.00
2022-10-05T00:08:34.301Z,0.00
2022-10-05T00:09:34.308Z,0.00
2022-10-05T00:10:34.297Z,0.00
2022-10-05T00:11:34.326Z,0.00
2022-10-05T00:12:34.294Z,0.00
2022-10-05T00:13:34.275Z,0.00
2022-10-05T00:14:34.257Z,0.00
2022-10-05T00:15:34.244Z,0.00
2022-10-05T00:16:34.321Z,0.00
2022-10-05T00:17:34.235Z,0.00
2022-10-05T00:18:34.219Z,0.00
2022-10-05T00:19:34.216Z,0.00
2022-10-05T00:20:34.209Z,0.00
2022-10-05T00:21:34.205Z,0.00
2022-10-05T00:22:34.206Z,0.00
2022-10-05T00:23:34.169Z,0.00
2022-10-05T00:24:34.173Z,0.00
2022-10-05T00:25:34.201Z,0.00
2022-10-05T00:26:34.140Z,0.00
2022-10-05T00:27:34.206Z,0.00
2022-10-05T00:28:34.199Z,0.00
2022-10-05T00:29:34.207Z,0.00
2022-10-05T00:30:34.146Z,0.00
2022-10-05T00:31:34.191Z,0.00
2022-10-05T00:32:34.135Z,0.00
2022-10-05T00:33:34.104Z,0.00
2022-10-05T00:34:34.105Z,0.00
2022-10-05T00:35:34.119Z,0.00
2022-10-05T00:36:34.157Z,0.00
2022-10-05T00:37:34.072Z,0.00
2022-10-05T00:38:34.095Z,0.00
2022-10-05T00:39:34.063Z,0.00
2022-10-05T00:40:34.069Z,0.00
2022-10-05T00:41:34.072Z,0.00
2022-10-05T00:42:34.998Z,0.00
2022-10-05T00:43:34.717Z,0.00
2022-10-05T00:44:34.657Z,0.00
2022-10-05T00:45:34.037Z,0.00
2022-10-05T00:46:34.021Z,0.00
2022-10-05T00:47:34.007Z,0.00
2022-10-05T00:48:34.008Z,0.00
2022-10-05T00:49:33.966Z,0.00
2022-10-05T00:50:33.974Z,0.00
2022-10-05T00:51:33.955Z,0.00
2022-10-05T00:52:33.962Z,0.00
2022-10-05T00:53:34.044Z,0.00
2022-10-05T00:54:33.941Z,0.00
2022-10-05T00:55:33.994Z,0.00
2022-10-05T00:56:33.939Z,0.00
2022-10-05T00:57:34.684Z,0.00
2022-10-05T00:58:33.942Z,0.00
2022-10-05T00:59:33.896Z,0.00
2022-10-05T01:00:33.919Z,0.00
2022-10-05T01:01:33.938Z,0.00
2022-10-05T01:02:36.877Z,0.00
2022-10-05T01:03:34.877Z,0.00
2022-10-05T01:04:33.865Z,0.00
2022-10-05T01:05:33.969Z,0.00
2022-10-05T01:06:33.857Z,0.00
2022-10-05T01:07:33.890Z,0.00
2022-10-05T01:08:33.840Z,0.00
2022-10-05T01:09:33.845Z,0.00
2022-10-05T01:10:34.502Z,0.00
2022-10-05T01:11:33.896Z,0.00
2022-10-05T01:12:33.823Z,0.00
2022-10-05T01:13:33.824Z,0.00
2022-10-05T01:14:33.790Z,0.00
2022-10-05T01:15:33.779Z,0.00
2022-10-05T01:16:33.851Z,0.00
2022-10-05T01:17:34.818Z,0.00
2022-10-05T01:18:33.798Z,0.00
2022-10-05T01:19:33.772Z,0.00
2022-10-05T01:20:33.771Z,0.00
2022-10-05T01:21:33.726Z,0.00
2022-10-05T01:22:33.782Z,0.00
2022-10-05T01:23:33.780Z,0.00
2022-10-05T01:24:33.737Z,0.00
2022-10-05T01:25:33.700Z,0.00
2022-10-05T01:26:33.691Z,0.00
2022-10-05T01:27:33.660Z,0.00
2022-10-05T01:28:33.725Z,0.00
2022-10-05T01:29:33.698Z,0.00
2022-10-05T01:30:33.637Z,0.00
2022-10-05T01:31:33.659Z,0.00
2022-10-05T01:32:33.634Z,0.00
2022-10-05T01:33:33.627Z,0.00
2022-10-05T01:34:33.654Z,0.00
2022-10-05T01:35:33.621Z,0.00
2022-10-05T01:36:33.612Z,0.00
2022-10-05T01:37:33.598Z,0.00
2022-10-05T01:38:34.143Z,0.00
2022-10-05T01:39:33.623Z,0.00
2022-10-05T01:40:33.570Z,0.00
2022-10-05T01:41:33.602Z,0.00
2022-10-05T01:42:35.092Z,0.00
2022-10-05T01:43:33.543Z,0.00
2022-10-05T01:44:33.551Z,0.00
2022-10-05T02:03:53.966Z,0.00
2022-10-05T02:05:01.779Z,0.00
2022-10-05T02:05:54.958Z,0.00
2022-10-05T02:06:55.095Z,0.00
2022-10-05T02:07:55.113Z,0.00
2022-10-05T02:08:55.108Z,0.00
2022-10-05T02:09:55.143Z,0.00
2022-10-05T02:10:55.143Z,0.00
2022-10-05T02:11:55.066Z,0.00
2022-10-05T02:12:55.095Z,0.00
2022-10-05T02:13:55.086Z,0.00
2022-10-05T02:14:55.053Z,0.00
2022-10-05T02:15:55.114Z,0.00
2022-10-05T02:16:55.058Z,0.00
2022-10-05T02:17:55.009Z,0.00
2022-10-05T02:18:55.035Z,0.00
2022-10-05T02:19:55.055Z,0.00
2022-10-05T02:20:55.111Z,0.00
2022-10-05T02:21:54.980Z,0.00
2022-10-05T02:22:54.951Z,0.00
2022-10-05T02:23:54.958Z,0.00
2022-10-05T02:24:54.943Z,0.00
2022-10-05T02:25:54.941Z,0.00
2022-10-05T02:26:54.928Z,0.00
2022-10-05T02:27:55.015Z,0.00
2022-10-05T02:28:54.904Z,0.00
2022-10-05T02:29:54.940Z,0.00
2022-10-05T02:30:54.941Z,0.00
2022-10-05T02:31:54.921Z,0.00
2022-10-05T02:32:54.875Z,0.00
2022-10-05T02:33:54.882Z,0.00
2022-10-05T02:34:55.868Z,0.00
2022-10-05T02:35:54.842Z,0.00
2022-10-05T02:36:54.862Z,0.00
2022-10-05T02:37:54.853Z,0.00
2022-10-05T02:38:54.844Z,0.00
2022-10-05T02:39:54.844Z,0.00
2022-10-05T02:40:54.840Z,0.00
2022-10-05T02:41:54.808Z,0.00
2022-10-05T02:42:54.804Z,0.00
2022-10-05T02:43:54.797Z,0.00
2022-10-05T02:44:54.780Z,0.00
2022-10-05T02:45:54.851Z,0.00
2022-10-05T02:46:57.336Z,0.00
2022-10-05T02:47:55.776Z,0.00
2022-10-05T02:48:54.790Z,0.00
2022-10-05T02:49:54.741Z,0.00
2022-10-05T02:50:54.761Z,0.00
2022-10-05T02:51:54.738Z,0.00
2022-10-05T02:52:54.772Z,0.00
2022-10-05T02:53:54.717Z,0.00
2022-10-05T02:54:54.702Z,0.00
2022-10-05T02:55:54.686Z,0.00
2022-10-05T02:56:54.683Z,0.00
2022-10-05T02:57:54.704Z,0.00
2022-10-05T02:58:54.699Z,0.00
2022-10-05T02:59:54.700Z,0.00
2022-10-05T03:00:54.728Z,0.00
2022-10-05T03:01:54.706Z,0.00
2022-10-05T03:02:54.665Z,0.00
2022-10-05T03:03:54.655Z,0.00
2022-10-05T03:04:54.617Z,0.00
2022-10-05T03:05:54.632Z,0.00
2022-10-05T03:06:54.625Z,0.00
2022-10-05T03:07:54.620Z,0.00
2022-10-05T03:08:54.612Z,0.00
2022-10-05T03:09:58.827Z,0.00
2022-10-05T03:10:56.564Z,0.00
2022-10-05T03:11:54.582Z,0.00
2022-10-05T03:12:54.598Z,0.00
2022-10-05T03:13:54.556Z,0.00
2022-10-05T03:14:54.559Z,0.00
2022-10-05T03:15:54.570Z,0.00
2022-10-05T03:16:54.561Z,0.00
2022-10-05T03:17:54.556Z,0.00
2022-10-05T03:18:54.528Z,0.00
2022-10-05T03:19:54.556Z,0.00
2022-10-05T03:20:54.524Z,0.00
2022-10-05T03:21:54.591Z,0.00
2022-10-05T03:22:54.536Z,0.00
2022-10-05T03:23:54.475Z,0.00
2022-10-05T03:24:54.539Z,0.00
2022-10-05T03:25:54.537Z,0.00
2022-10-05T03:26:54.499Z,0.00
2022-10-05T03:27:54.542Z,0.00
2022-10-05T03:28:54.497Z,0.00
2022-10-05T03:29:54.461Z,0.00
2022-10-05T03:30:54.516Z,0.00
2022-10-05T03:31:54.465Z,0.00
2022-10-05T03:32:54.442Z,0.00
2022-10-05T03:33:54.437Z,0.00
2022-10-05T03:34:54.419Z,0.00
2022-10-05T03:35:54.441Z,0.00
2022-10-05T03:36:54.418Z,0.00
2022-10-05T03:37:54.418Z,0.00
2022-10-05T03:38:54.419Z,0.00
2022-10-05T03:39:54.377Z,0.00
2022-10-05T03:40:54.343Z,0.00
2022-10-05T03:41:54.372Z,0.00
2022-10-05T03:42:54.352Z,0.00
2022-10-05T03:43:54.393Z,0.00
2022-10-05T03:44:54.326Z,0.00
2022-10-05T03:45:54.383Z,0.00
2022-10-05T03:46:54.349Z,0.00
2022-10-05T04:02:33.163Z,0.00
2022-10-05T04:03:33.083Z,0.00
2022-10-05T04:04:33.075Z,0.00
2022-10-05T04:05:34.241Z,0.00
2022-10-05T04:06:34.200Z,0.00
2022-10-05T04:07:34.173Z,0.00
2022-10-05T04:08:34.170Z,0.00
2022-10-05T04:09:34.176Z,0.00
2022-10-05T04:10:34.226Z,0.00
2022-10-05T04:11:34.227Z,0.00
2022-10-05T04:12:34.171Z,0.00
2022-10-05T04:13:34.305Z,0.00
2022-10-05T04:14:34.182Z,0.00
2022-10-05T04:15:34.184Z,0.00
2022-10-05T04:16:34.139Z,0.00
2022-10-05T04:17:34.133Z,0.00
2022-10-05T04:18:34.183Z,0.00
2022-10-05T04:19:34.122Z,0.00
2022-10-05T04:20:34.133Z,0.00
2022-10-05T04:21:34.112Z,0.00
2022-10-05T04:22:34.144Z,0.00
2022-10-05T04:23:34.139Z,0.00
2022-10-05T04:24:34.100Z,0.00
2022-10-05T04:25:34.093Z,0.00
2022-10-05T04:26:34.119Z,0.00
2022-10-05T04:27:34.381Z,0.00
2022-10-05T04:28:34.083Z,0.00
2022-10-05T04:29:34.033Z,0.00
2022-10-05T04:30:34.023Z,0.00
2022-10-05T04:31:34.127Z,0.00
2022-10-05T04:32:34.110Z,0.00
2022-10-05T04:33:34.012Z,0.00
2022-10-05T04:34:34.015Z,0.00
2022-10-05T04:35:34.000Z,0.00
2022-10-05T04:36:33.997Z,0.00
2022-10-05T04:37:34.034Z,0.00
2022-10-05T04:38:35.005Z,0.00
2022-10-05T04:39:33.980Z,0.00
2022-10-05T04:40:34.009Z,0.00
2022-10-05T04:41:33.944Z,0.00
2022-10-05T04:42:33.945Z,0.00
2022-10-05T04:43:34.000Z,0.00
2022-10-05T04:44:33.966Z,0.00
2022-10-05T04:45:33.942Z,0.00
2022-10-05T04:46:34.067Z,0.00
2022-10-05T04:47:33.945Z,0.00
2022-10-05T04:48:33.952Z,0.00
2022-10-05T04:49:33.888Z,0.00
2022-10-05T04:50:33.898Z,0.00
2022-10-05T04:51:33.895Z,0.00
2022-10-05T04:52:33.887Z,0.00
2022-10-05T04:53:33.879Z,0.00
2022-10-05T04:54:33.974Z,0.00
2022-10-05T04:55:33.890Z,0.00
2022-10-05T04:56:33.897Z,4.00
2022-10-05T04:57:33.869Z,4.00
2022-10-05T04:58:34.697Z,4.00
2022-10-05T04:59:33.886Z,0.00
2022-10-05T05:00:33.896Z,4.00
2022-10-05T05:01:33.896Z,8.00
2022-10-05T05:02:33.859Z,4.00
2022-10-05T05:03:33.861Z,8.00
2022-10-05T05:04:33.775Z,8.00
2022-10-05T05:05:33.824Z,12.00
2022-10-05T05:06:33.809Z,12.00
2022-10-05T05:07:33.720Z,12.00
2022-10-05T05:08:33.764Z,20.00
2022-10-05T05:09:33.755Z,20.00
2022-10-05T05:10:33.811Z,24.00
2022-10-05T05:11:33.728Z,28.00
2022-10-05T05:12:33.718Z,32.00
2022-10-05T05:13:33.720Z,40.00
2022-10-05T05:14:33.726Z,44.00
2022-10-05T05:15:33.705Z,48.00
2022-10-05T05:16:33.729Z,52.00
2022-10-05T05:17:33.685Z,52.00
2022-10-05T05:18:33.748Z,60.00
2022-10-05T05:19:33.684Z,64.00
2022-10-05T05:20:34.393Z,68.00
2022-10-05T05:21:33.693Z,80.00
2022-10-05T05:22:33.729Z,88.00
2022-10-05T05:23:33.698Z,96.00
2022-10-05T05:24:33.630Z,100.00
2022-10-05T05:25:33.611Z,112.00
2022-10-05T05:26:45.574Z,128.00
2022-10-05T05:27:35.600Z,144.00
2022-10-05T05:28:33.650Z,164.00
2022-10-05T05:29:33.665Z,204.00
2022-10-05T05:30:33.595Z,248.00
2022-10-05T05:31:33.619Z,292.00
2022-10-05T05:32:33.604Z,324.00
2022-10-05T05:33:33.590Z,324.00
2022-10-05T05:34:33.578Z,324.00
2022-10-05T05:35:33.622Z,336.00
2022-10-05T05:36:33.529Z,356.00
2022-10-05T05:37:33.551Z,368.00
2022-10-05T05:38:33.497Z,364.00
2022-10-05T05:39:33.554Z,360.00
2022-10-05T05:40:33.506Z,368.00
2022-10-05T05:41:33.540Z,388.00
2022-10-05T05:42:33.528Z,428.00
2022-10-05T05:43:33.524Z,456.00
2022-10-05T05:44:38.454Z,484.00
2022-10-05T05:45:35.500Z,524.00
2022-10-05T05:46:58.325Z,548.00
2022-10-05T05:47:35.621Z,576.00
2022-10-05T05:48:33.465Z,640.00
2022-10-05T05:49:33.499Z,660.00
2022-10-05T05:50:33.480Z,684.00
2022-10-05T05:51:33.432Z,764.00
2022-10-05T05:52:33.452Z,832.00
2022-10-05T05:53:33.409Z,888.00
2022-10-05T05:54:33.472Z,940.00
2022-10-05T05:55:33.455Z,1024.00
2022-10-05T05:56:33.405Z,1080.00
2022-10-05T05:57:34.153Z,1124.00
2022-10-05T05:58:33.418Z,1096.00
2022-10-05T05:59:33.362Z,1080.00
2022-10-05T06:00:33.394Z,1048.00
2022-10-05T06:01:34.032Z,1144.00
2022-10-05T06:02:34.566Z,1212.00
2022-10-05T06:03:33.352Z,1248.00
2022-10-05T06:04:33.411Z,1308.00
2022-10-05T06:05:33.342Z,1356.00
2022-10-05T06:06:33.386Z,1384.00
2022-10-05T06:07:33.399Z,1512.00
2022-10-05T06:08:33.278Z,1664.00
2022-10-05T06:09:33.308Z,1828.00
2022-10-05T06:10:33.319Z,2236.00
2022-10-05T06:11:33.327Z,3024.00
2022-10-05T06:12:33.321Z,3788.00
2022-10-05T06:13:33.312Z,4828.00
2022-10-05T06:14:33.366Z,4184.00
2022-10-05T06:15:33.282Z,5284.00
2022-10-05T06:16:33.324Z,5964.00
2022-10-05T06:17:33.308Z,4976.00
2022-10-05T06:18:33.335Z,4792.00
2022-10-05T06:19:33.229Z,5596.00
2022-10-05T06:20:33.245Z,6928.00
2022-10-05T06:21:33.252Z,6684.00
2022-10-05T06:22:33.287Z,8668.00
2022-10-05T06:23:33.309Z,9400.00
2022-10-05T06:24:33.245Z,12580.00
2022-10-05T06:25:33.224Z,9324.00
2022-10-05T06:26:33.235Z,12620.00
2022-10-05T06:27:33.230Z,10580.00
2022-10-05T06:28:33.230Z,16320.00
2022-10-05T06:29:33.207Z,12952.00
2022-10-05T06:30:33.203Z,15328.00
2022-10-05T06:31:33.185Z,13080.00
2022-10-05T06:32:33.343Z,12092.00
2022-10-05T06:33:33.172Z,7036.00
2022-10-05T06:34:33.171Z,6644.00
2022-10-05T06:35:33.110Z,3868.00
2022-10-05T06:36:33.140Z,3276.00
2022-10-05T06:37:33.182Z,3020.00
2022-10-05T06:38:33.137Z,2592.00
2022-10-05T06:39:33.145Z,3196.00
2022-10-05T06:40:33.073Z,2336.00
2022-10-05T06:41:33.080Z,2588.00
2022-10-05T06:42:33.163Z,2204.00
2022-10-05T06:43:33.050Z,2020.00
2022-10-05T06:44:33.028Z,2080.00
2022-10-05T06:45:33.122Z,2220.00
2022-10-05T06:46:33.123Z,1936.00
2022-10-05T06:47:33.009Z,2024.00
2022-10-05T06:48:33.050Z,2032.00
2022-10-05T06:49:33.008Z,1976.00
2022-10-05T06:50:32.984Z,2252.00
2022-10-05T06:51:32.973Z,2512.00
2022-10-05T06:52:33.008Z,2604.00
2022-10-05T06:53:32.985Z,2700.00
2022-10-05T06:54:32.942Z,2864.00
2022-10-05T06:55:32.924Z,3180.00
2022-10-05T06:56:32.959Z,3440.00
2022-10-05T06:57:32.949Z,3416.00
2022-10-05T06:58:32.965Z,3068.00
2022-10-05T06:59:32.986Z,2872.00
2022-10-05T07:00:32.905Z,2740.00
2022-10-05T07:01:32.931Z,2724.00
2022-10-05T07:02:32.972Z,2772.00
2022-10-05T07:03:32.879Z,3008.00
2022-10-05T07:04:36.780Z,4184.00
2022-10-05T07:05:33.919Z,5760.00
2022-10-05T07:06:32.895Z,9800.00
2022-10-05T07:07:32.903Z,11536.00
2022-10-05T07:08:32.975Z,20352.00
2022-10-05T07:09:32.899Z,14248.00
2022-10-05T07:10:33.343Z,10744.00
2022-10-05T07:11:32.912Z,9488.00
2022-10-05T07:12:32.796Z,8548.00
2022-10-05T07:13:32.828Z,8000.00
2022-10-05T07:14:32.801Z,9272.00
2022-10-05T07:15:32.772Z,8072.00
2022-10-05T07:16:32.819Z,6880.00
2022-10-05T07:17:33.815Z,6084.00
2022-10-05T07:18:32.768Z,5252.00
2022-10-05T07:19:32.776Z,4500.00
2022-10-05T07:20:32.744Z,4404.00
2022-10-05T07:21:32.791Z,4604.00
2022-10-05T07:22:34.215Z,5304.00
2022-10-05T07:23:32.737Z,6544.00
2022-10-05T07:24:32.735Z,7148.00
2022-10-05T07:25:32.708Z,8832.00
2022-10-05T07:26:32.695Z,61056.00
2022-10-05T07:27:32.712Z,52288.00
2022-10-05T07:28:32.849Z,62528.00
2022-10-05T07:29:32.703Z,68576.00
2022-10-05T07:30:32.712Z,26560.00
2022-10-05T07:31:32.674Z,45504.00
2022-10-05T07:32:33.376Z,33888.00
2022-10-05T07:33:32.715Z,57984.00
2022-10-05T07:34:32.639Z,19424.00
2022-10-05T07:35:32.609Z,17120.00
2022-10-05T07:36:32.668Z,13728.00
2022-10-05T07:37:32.689Z,11032.00
2022-10-05T07:38:32.636Z,12900.00
2022-10-05T07:39:58.463Z,17280.00
2022-10-05T07:40:34.588Z,14720.00
2022-10-05T07:41:32.621Z,14020.00
2022-10-05T07:42:32.563Z,12032.00
2022-10-05T07:43:57.568Z,13368.00
2022-10-05T07:44:34.588Z,10208.00
2022-10-05T07:45:32.598Z,9148.00
2022-10-05T07:46:32.588Z,9056.00
2022-10-05T07:47:32.547Z,9444.00
2022-10-05T07:48:32.540Z,8836.00
2022-10-05T07:49:32.537Z,8800.00
2022-10-05T07:50:32.482Z,7700.00
2022-10-05T07:51:32.535Z,6704.00
2022-10-05T07:52:34.933Z,6452.00
2022-10-05T07:53:33.480Z,5976.00
2022-10-05T07:54:32.506Z,5448.00
2022-10-05T07:55:32.519Z,4764.00
2022-10-05T07:56:32.484Z,4888.00
2022-10-05T07:57:32.461Z,4436.00
2022-10-05T07:58:32.436Z,4256.00
2022-10-05T07:59:32.468Z,4504.00
2022-10-05T08:00:32.448Z,4412.00
2022-10-05T08:01:32.453Z,4716.00
2022-10-05T08:02:32.611Z,4928.00
2022-10-05T08:03:32.426Z,6128.00
2022-10-05T08:04:32.471Z,7068.00
2022-10-05T08:05:32.405Z,7588.00
2022-10-05T08:06:32.426Z,6448.00
2022-10-05T08:07:32.387Z,5392.00
2022-10-05T08:08:32.382Z,5340.00
2022-10-05T08:09:32.408Z,5800.00
2022-10-05T08:10:32.340Z,4244.00
2022-10-05T08:11:32.369Z,4084.00
2022-10-05T08:12:32.347Z,4436.00
2022-10-05T08:13:32.365Z,4180.00
2022-10-05T08:14:32.308Z,4280.00
2022-10-05T08:15:32.330Z,4196.00
2022-10-05T08:16:32.312Z,4056.00
2022-10-05T08:17:32.302Z,3376.00
2022-10-05T08:18:32.353Z,3272.00
2022-10-05T08:19:32.298Z,3704.00
2022-10-05T08:20:32.290Z,3472.00
2022-10-05T08:21:34.891Z,3116.00
2022-10-05T08:22:32.284Z,3224.00
2022-10-05T08:23:32.277Z,3196.00
2022-10-05T08:24:32.260Z,3340.00
2022-10-05T08:25:32.229Z,3436.00
2022-10-05T08:26:32.233Z,3384.00
2022-10-05T08:27:32.220Z,3072.00
2022-10-05T08:28:32.298Z,2760.00
2022-10-05T08:29:32.202Z,2732.00
2022-10-05T08:30:32.218Z,2972.00
2022-10-05T08:31:32.267Z,2828.00
2022-10-05T08:32:32.176Z,2872.00
2022-10-05T08:33:32.683Z,2904.00
2022-10-05T08:34:32.175Z,3040.00
2022-10-05T08:35:32.180Z,3296.00
2022-10-05T08:36:32.128Z,3396.00
2022-10-05T08:37:32.142Z,3496.00
2022-10-05T08:38:32.146Z,3296.00
2022-10-05T08:39:32.148Z,2812.00
2022-10-05T08:40:32.133Z,2528.00
2022-10-05T08:41:32.684Z,2752.00
2022-10-05T08:42:32.150Z,2996.00
2022-10-05T08:43:35.496Z,2964.00
2022-10-05T08:44:33.134Z,2900.00
2022-10-05T08:45:32.107Z,2840.00
2022-10-05T08:46:32.118Z,3068.00
2022-10-05T08:47:33.332Z,3056.00
2022-10-05T08:48:32.086Z,3192.00
2022-10-05T08:49:35.167Z,3576.00
2022-10-05T08:50:33.078Z,3876.00
2022-10-05T08:51:32.071Z,4216.00
2022-10-05T08:52:32.043Z,4540.00
2022-10-05T08:53:32.027Z,5068.00
2022-10-05T08:54:32.034Z,5400.00
2022-10-05T08:55:32.040Z,5448.00
2022-10-05T08:56:32.018Z,5480.00
2022-10-05T08:57:32.001Z,5528.00
2022-10-05T08:58:32.049Z,5340.00
2022-10-05T08:59:32.893Z,5192.00
2022-10-05T09:00:31.967Z,5284.00
2022-10-05T09:01:32.097Z,5592.00
2022-10-05T09:02:32.018Z,5912.00
2022-10-05T09:03:34.439Z,6216.00
2022-10-05T09:04:32.937Z,6144.00
2022-10-05T09:05:31.945Z,6196.00
2022-10-05T09:06:31.973Z,6284.00
2022-10-05T09:07:31.945Z,6368.00
2022-10-05T09:08:31.915Z,6520.00
2022-10-05T09:09:31.943Z,6724.00
2022-10-05T09:10:31.911Z,7004.00
2022-10-05T09:11:31.962Z,7440.00
2022-10-05T09:12:31.867Z,7720.00
2022-10-05T09:13:31.868Z,7888.00
2022-10-05T09:14:31.855Z,8420.00
2022-10-05T09:15:31.949Z,8332.00
2022-10-05T09:16:31.896Z,9012.00
2022-10-05T09:17:35.837Z,8640.00
2022-10-05T09:18:32.847Z,8736.00
2022-10-05T09:19:32.856Z,8988.00
2022-10-05T09:20:31.871Z,9708.00
2022-10-05T09:21:31.851Z,10156.00
2022-10-05T09:22:31.856Z,11168.00
2022-10-05T09:23:31.819Z,12208.00
2022-10-05T09:24:31.796Z,14512.00
2022-10-05T09:25:31.820Z,17056.00
2022-10-05T09:26:31.796Z,29184.00
2022-10-05T09:27:31.820Z,17248.00
2022-10-05T09:28:31.882Z,17120.00
2022-10-05T09:29:31.759Z,14336.00
2022-10-05T09:30:31.781Z,16320.00
2022-10-05T09:31:31.853Z,14760.00
2022-10-05T09:32:31.727Z,15636.00
2022-10-05T09:33:31.716Z,16224.00
2022-10-05T09:34:31.754Z,14120.00
2022-10-05T09:35:31.778Z,14316.00
2022-10-05T09:36:31.754Z,16544.00
2022-10-05T09:37:31.740Z,30912.00
2022-10-05T09:38:32.425Z,17344.00
2022-10-05T09:39:31.695Z,15028.00
2022-10-05T09:40:31.675Z,12392.00
2022-10-05T09:41:31.724Z,13468.00
2022-10-05T09:42:31.782Z,11432.00
2022-10-05T09:43:31.696Z,11716.00
2022-10-05T09:44:31.671Z,13640.00
2022-10-05T09:45:31.719Z,13816.00
2022-10-05T09:46:31.729Z,11996.00
2022-10-05T09:47:31.678Z,12320.00
2022-10-05T09:48:31.747Z,11640.00
2022-10-05T09:49:32.398Z,11664.00
2022-10-05T09:50:31.564Z,11232.00
2022-10-05T09:51:31.654Z,10692.00
2022-10-05T09:52:31.572Z,10756.00
2022-10-05T09:53:31.587Z,10788.00
2022-10-05T09:54:32.555Z,10668.00
2022-10-05T09:55:31.565Z,11152.00
2022-10-05T09:56:31.561Z,11640.00
2022-10-05T09:57:31.533Z,11712.00
2022-10-05T09:58:31.526Z,11084.00
2022-10-05T09:59:31.576Z,10268.00
2022-10-05T10:00:31.539Z,10040.00
2022-10-05T10:01:34.097Z,10220.00
2022-10-05T10:02:32.652Z,10332.00
2022-10-05T10:03:31.543Z,10120.00
2022-10-05T10:04:31.510Z,10072.00
2022-10-05T10:05:31.500Z,9564.00
2022-10-05T10:06:32.409Z,9168.00
2022-10-05T10:07:31.483Z,9912.00
2022-10-05T10:08:31.527Z,10336.00
2022-10-05T10:09:33.086Z,9772.00
2022-10-05T10:10:31.463Z,9380.00
2022-10-05T10:11:31.456Z,9456.00
2022-10-05T10:12:31.463Z,9680.00
2022-10-05T10:13:31.481Z,9840.00
2022-10-05T10:14:32.320Z,10020.00
2022-10-05T10:15:31.470Z,10836.00
2022-10-05T10:16:31.441Z,10740.00
2022-10-05T10:17:31.463Z,10532.00
2022-10-05T10:18:32.222Z,10876.00
2022-10-05T10:19:31.449Z,15872.00
2022-10-05T10:20:31.370Z,10952.00
2022-10-05T10:21:31.471Z,10892.00
2022-10-05T10:22:31.435Z,9888.00
2022-10-05T10:23:31.514Z,9840.00
2022-10-05T10:24:31.392Z,15232.00
2022-10-05T10:25:31.328Z,10116.00
2022-10-05T10:26:32.221Z,10844.00
2022-10-05T10:27:31.367Z,11464.00
2022-10-05T10:28:31.404Z,11484.00
2022-10-05T10:29:31.343Z,10540.00
2022-10-05T10:30:33.211Z,16192.00
2022-10-05T10:31:31.928Z,12220.00
2022-10-05T10:32:31.282Z,14764.00
2022-10-05T10:33:31.361Z,14124.00
2022-10-05T10:34:31.291Z,10732.00
2022-10-05T10:35:31.372Z,11788.00
2022-10-05T10:36:31.284Z,15232.00
2022-10-05T10:37:31.306Z,15456.00
2022-10-05T10:38:31.228Z,10548.00
2022-10-05T10:39:31.246Z,14388.00
2022-10-05T10:40:31.202Z,15520.00
2022-10-05T10:41:31.237Z,14400.00
2022-10-05T10:42:31.229Z,10732.00
2022-10-05T10:43:31.178Z,15200.00
2022-10-05T10:44:31.158Z,12520.00
2022-10-05T10:45:31.250Z,11012.00
2022-10-05T10:46:31.195Z,15104.00
2022-10-05T10:47:31.164Z,14592.00
2022-10-05T10:48:31.199Z,14744.00
2022-10-05T10:49:32.199Z,14728.00
2022-10-05T10:50:31.119Z,14276.00
2022-10-05T10:51:31.175Z,13872.00
2022-10-05T10:52:31.140Z,13532.00
2022-10-05T10:53:31.117Z,9564.00
2022-10-05T10:54:31.117Z,13996.00
2022-10-05T10:55:31.103Z,13908.00
2022-10-05T10:56:31.118Z,13556.00
2022-10-05T10:57:31.061Z,13296.00
2022-10-05T10:59:31.778Z,13268.00
2022-10-05T11:00:31.070Z,13244.00
2022-10-05T11:01:31.089Z,13256.00
2022-10-05T11:02:32.099Z,10324.00
2022-10-05T11:03:31.049Z,13304.00
2022-10-05T11:04:31.074Z,9344.00
2022-10-05T11:05:31.017Z,10832.00
2022-10-05T11:06:31.028Z,10252.00
2022-10-05T11:07:31.058Z,10180.00
2022-10-05T11:08:31.006Z,10088.00
2022-10-05T11:09:31.017Z,9624.00
2022-10-05T11:10:30.981Z,9784.00
2022-10-05T11:11:31.027Z,10620.00
2022-10-05T11:12:34.590Z,11452.00
2022-10-05T11:13:31.961Z,9288.00
2022-10-05T11:14:30.991Z,13064.00
2022-10-05T11:15:30.963Z,12668.00
2022-10-05T11:16:30.958Z,11012.00
2022-10-05T11:17:31.000Z,12240.00
2022-10-05T11:18:30.982Z,12276.00
2022-10-05T11:19:40.073Z,10224.00
2022-10-05T11:20:32.953Z,11584.00
2022-10-05T11:21:30.899Z,11192.00
2022-10-05T11:22:30.926Z,11000.00
2022-10-05T11:23:34.162Z,10692.00
2022-10-05T11:24:31.888Z,10488.00
2022-10-05T11:25:30.915Z,10300.00
2022-10-05T11:26:30.887Z,10312.00
2022-10-05T11:27:30.864Z,10368.00
2022-10-05T11:28:30.923Z,9732.00
2022-10-05T11:29:30.852Z,10908.00
2022-10-05T11:30:30.865Z,10472.00
2022-10-05T11:31:30.904Z,10428.00
2022-10-05T11:32:31.846Z,10056.00
2022-10-05T11:33:30.851Z,9676.00
2022-10-05T11:34:30.829Z,9104.00
2022-10-05T11:35:30.891Z,8920.00
2022-10-05T11:36:30.785Z,8704.00
2022-10-05T11:37:30.814Z,8472.00
2022-10-05T11:38:30.796Z,8380.00
2022-10-05T11:39:30.772Z,8168.00
2022-10-05T11:40:31.449Z,7628.00
2022-10-05T11:41:31.445Z,7456.00
2022-10-05T11:42:30.746Z,7924.00
2022-10-05T11:43:30.801Z,8568.00
2022-10-05T11:44:30.815Z,7796.00
2022-10-05T11:45:30.785Z,7864.00
2022-10-05T11:46:30.887Z,7628.00
2022-10-05T11:47:30.698Z,7876.00
2022-10-05T11:48:30.700Z,8012.00
2022-10-05T11:49:30.758Z,7920.00
2022-10-05T11:50:30.729Z,7804.00
2022-10-05T11:51:30.669Z,7872.00
2022-10-05T11:52:30.730Z,7592.00
2022-10-05T11:53:30.730Z,7536.00
2022-10-05T11:54:32.495Z,7448.00
2022-10-05T11:55:31.635Z,7400.00
2022-10-05T11:57:31.655Z,7564.00
2022-10-05T11:58:30.642Z,7616.00
2022-10-05T11:59:30.616Z,7744.00
2022-10-05T12:00:30.600Z,7524.00
2022-10-05T12:01:30.664Z,7520.00
2022-10-05T12:02:30.675Z,7520.00
2022-10-05T12:03:30.663Z,7596.00
2022-10-05T12:04:30.701Z,7612.00
2022-10-05T12:05:30.593Z,7732.00
2022-10-05T12:06:30.579Z,7680.00
2022-10-05T12:07:30.601Z,7744.00
2022-10-05T12:08:30.550Z,7828.00
2022-10-05T12:09:30.560Z,7980.00
2022-10-05T12:10:30.550Z,7952.00
2022-10-05T12:11:30.550Z,8296.00
2022-10-05T12:12:30.537Z,7968.00
2022-10-05T12:13:30.526Z,8240.00
2022-10-05T12:14:30.511Z,8080.00
2022-10-05T12:15:30.490Z,8060.00
2022-10-05T12:16:30.551Z,8176.00
2022-10-05T12:17:30.507Z,8220.00
2022-10-05T12:18:31.455Z,8380.00
2022-10-05T12:19:30.436Z,8368.00
2022-10-05T12:20:30.439Z,8336.00
2022-10-05T12:21:30.447Z,8336.00
2022-10-05T12:22:30.443Z,8400.00
2022-10-05T12:23:30.439Z,8468.00
2022-10-05T12:24:30.461Z,8524.00
2022-10-05T12:25:30.404Z,8488.00
2022-10-05T12:26:30.385Z,8440.00
2022-10-05T12:27:31.439Z,8444.00
2022-10-05T12:28:30.463Z,8500.00
2022-10-05T12:29:30.414Z,8484.00
2022-10-05T12:30:30.393Z,8604.00
2022-10-05T12:31:30.451Z,8620.00
2022-10-05T12:32:30.391Z,8600.00
2022-10-05T12:33:30.389Z,8712.00
2022-10-05T12:34:30.357Z,8552.00
2022-10-05T12:35:47.374Z,8592.00
2022-10-05T12:36:52.467Z,8676.00
2022-10-05T12:37:32.313Z,8640.00
2022-10-05T12:38:30.328Z,8672.00
2022-10-05T12:39:30.321Z,8504.00
2022-10-05T12:40:30.382Z,8472.00
2022-10-05T12:41:30.439Z,8560.00
2022-10-05T12:42:30.396Z,8276.00
2022-10-05T12:43:30.445Z,8180.00
2022-10-05T12:44:30.316Z,8340.00
2022-10-05T12:45:30.346Z,8332.00
2022-10-05T12:46:30.254Z,8448.00
2022-10-05T12:47:30.301Z,8648.00
2022-10-05T12:48:30.216Z,8628.00
2022-10-05T12:49:30.233Z,8732.00
2022-10-05T12:50:30.265Z,8712.00
2022-10-05T12:51:30.242Z,8724.00
2022-10-05T12:52:30.293Z,8720.00
2022-10-05T12:53:30.239Z,9168.00
2022-10-05T12:54:30.236Z,8748.00
2022-10-05T12:55:30.219Z,8640.00
2022-10-05T12:56:30.191Z,8336.00
2022-10-05T12:57:30.192Z,8212.00
2022-10-05T12:58:30.244Z,8192.00
2022-10-05T12:59:30.194Z,8348.00
2022-10-05T13:00:30.194Z,8192.00
2022-10-05T13:01:31.002Z,8404.00
2022-10-05T13:02:30.292Z,8224.00
2022-10-05T13:03:30.196Z,8244.00